sensor_id;sensor_type;location;lat;lon;timestamp;P1;durP1;ratioP1;P2;durP2;ratioP2
55364;SDS011;41245;45.384;20.390;2022-07-05T00:00:59;13.45;;;9.02;;
55364;SDS011;41245;45.384;20.390;2022-07-05T00:03:25;24.38;;;9.35;;
55364;SDS011;41245;45.384;20.390;2022-07-05T00:05:51;21.85;;;9.63;;
55364;SDS011;41245;45.384;20.390;2022-07-05T00:08:16;17.98;;;9.38;;
55364;SDS011;41245;45.384;20.390;2022-07-05T00:10:43;26.52;;;9.65;;
55364;SDS011;41245;45.384;20.390;2022-07-05T00:13:09;17.83;;;8.88;;
55364;SDS011;41245;45.384;20.390;2022-07-05T00:15:35;25.92;;;9.52;;
55364;SDS011;41245;45.384;20.390;2022-07-05T00:18:01;26.33;;;9.10;;
55364;SDS011;41245;45.384;20.390;2022-07-05T00:20:26;19.95;;;9.32;;
55364;SDS011;41245;45.384;20.390;2022-07-05T00:22:52;18.15;;;9.10;;
55364;SDS011;41245;45.384;20.390;2022-07-05T00:25:18;22.92;;;8.48;;
55364;SDS011;41245;45.384;20.390;2022-07-05T00:27:44;18.85;;;8.68;;
55364;SDS011;41245;45.384;20.390;2022-07-05T00:30:12;16.80;;;9.85;;
55364;SDS011;41245;45.384;20.390;2022-07-05T00:32:38;16.30;;;9.25;;
55364;SDS011;41245;45.384;20.390;2022-07-05T00:35:07;18.60;;;7.90;;
55364;SDS011;41245;45.384;20.390;2022-07-05T00:37:33;16.40;;;8.48;;
55364;SDS011;41245;45.384;20.390;2022-07-05T00:39:59;17.40;;;8.35;;
55364;SDS011;41245;45.384;20.390;2022-07-05T00:42:25;16.00;;;8.18;;
55364;SDS011;41245;45.384;20.390;2022-07-05T00:44:51;13.38;;;8.30;;
55364;SDS011;41245;45.384;20.390;2022-07-05T00:47:18;18.60;;;7.95;;
55364;SDS011;41245;45.384;20.390;2022-07-05T00:49:44;19.10;;;8.18;;
55364;SDS011;41245;45.384;20.390;2022-07-05T00:52:10;32.67;;;9.30;;
55364;SDS011;41245;45.384;20.390;2022-07-05T00:54:37;16.05;;;7.40;;
55364;SDS011;41245;45.384;20.390;2022-07-05T00:57:04;18.25;;;6.82;;
55364;SDS011;41245;45.384;20.390;2022-07-05T00:59:30;19.92;;;7.20;;
55364;SDS011;41245;45.384;20.390;2022-07-05T01:01:56;16.20;;;7.40;;
55364;SDS011;41245;45.384;20.390;2022-07-05T01:04:23;16.38;;;6.97;;
55364;SDS011;41245;45.384;20.390;2022-07-05T01:06:50;16.58;;;6.90;;
55364;SDS011;41245;45.384;20.390;2022-07-05T01:09:17;11.43;;;6.00;;
55364;SDS011;41245;45.384;20.390;2022-07-05T01:11:45;9.45;;;6.00;;
55364;SDS011;41245;45.384;20.390;2022-07-05T01:14:12;14.93;;;7.20;;
55364;SDS011;41245;45.384;20.390;2022-07-05T01:16:41;9.05;;;5.43;;
55364;SDS011;41245;45.384;20.390;2022-07-05T01:19:07;9.77;;;6.03;;
55364;SDS011;41245;45.384;20.390;2022-07-05T01:21:38;15.30;;;5.55;;
55364;SDS011;41245;45.384;20.390;2022-07-05T01:24:09;9.90;;;5.85;;
55364;SDS011;41245;45.384;20.390;2022-07-05T01:26:37;13.07;;;5.82;;
55364;SDS011;41245;45.384;20.390;2022-07-05T01:29:03;11.40;;;5.75;;
55364;SDS011;41245;45.384;20.390;2022-07-05T01:31:30;10.45;;;6.07;;
55364;SDS011;41245;45.384;20.390;2022-07-05T01:33:56;11.40;;;5.65;;
55364;SDS011;41245;45.384;20.390;2022-07-05T01:36:22;15.18;;;6.22;;
55364;SDS011;41245;45.384;20.390;2022-07-05T01:38:48;15.25;;;6.22;;
55364;SDS011;41245;45.384;20.390;2022-07-05T01:41:14;12.50;;;7.20;;
55364;SDS011;41245;45.384;20.390;2022-07-05T01:43:41;17.95;;;6.32;;
55364;SDS011;41245;45.384;20.390;2022-07-05T01:46:06;12.38;;;6.18;;
55364;SDS011;41245;45.384;20.390;2022-07-05T01:48:33;11.27;;;5.78;;
55364;SDS011;41245;45.384;20.390;2022-07-05T01:51:02;9.07;;;5.47;;
55364;SDS011;41245;45.384;20.390;2022-07-05T01:53:30;16.45;;;5.85;;
55364;SDS011;41245;45.384;20.390;2022-07-05T01:56:00;18.15;;;6.45;;
55364;SDS011;41245;45.384;20.390;2022-07-05T01:58:27;14.32;;;5.30;;
55364;SDS011;41245;45.384;20.390;2022-07-05T02:00:55;18.73;;;5.85;;
55364;SDS011;41245;45.384;20.390;2022-07-05T02:03:22;17.77;;;6.03;;
55364;SDS011;41245;45.384;20.390;2022-07-05T02:05:48;16.35;;;5.93;;
55364;SDS011;41245;45.384;20.390;2022-07-05T02:08:15;14.38;;;6.80;;
55364;SDS011;41245;45.384;20.390;2022-07-05T02:10:42;14.90;;;6.35;;
55364;SDS011;41245;45.384;20.390;2022-07-05T02:13:08;14.38;;;6.15;;
55364;SDS011;41245;45.384;20.390;2022-07-05T02:15:36;28.27;;;8.07;;
55364;SDS011;41245;45.384;20.390;2022-07-05T02:18:03;20.58;;;7.13;;
55364;SDS011;41245;45.384;20.390;2022-07-05T02:20:30;18.05;;;7.28;;
55364;SDS011;41245;45.384;20.390;2022-07-05T02:22:57;18.92;;;7.72;;
55364;SDS011;41245;45.384;20.390;2022-07-05T02:25:23;12.98;;;6.45;;
55364;SDS011;41245;45.384;20.390;2022-07-05T02:27:49;14.00;;;6.97;;
55364;SDS011;41245;45.384;20.390;2022-07-05T02:30:17;17.30;;;7.05;;
55364;SDS011;41245;45.384;20.390;2022-07-05T02:32:43;23.00;;;7.60;;
55364;SDS011;41245;45.384;20.390;2022-07-05T02:35:09;23.10;;;7.00;;
55364;SDS011;41245;45.384;20.390;2022-07-05T02:37:35;13.88;;;6.68;;
55364;SDS011;41245;45.384;20.390;2022-07-05T02:40:02;14.02;;;6.60;;
55364;SDS011;41245;45.384;20.390;2022-07-05T02:42:29;20.77;;;7.72;;
55364;SDS011;41245;45.384;20.390;2022-07-05T02:44:55;18.42;;;7.35;;
55364;SDS011;41245;45.384;20.390;2022-07-05T02:47:21;14.45;;;6.45;;
55364;SDS011;41245;45.384;20.390;2022-07-05T02:49:47;11.18;;;5.97;;
55364;SDS011;41245;45.384;20.390;2022-07-05T02:52:12;19.48;;;6.50;;
55364;SDS011;41245;45.384;20.390;2022-07-05T02:54:38;18.88;;;6.82;;
55364;SDS011;41245;45.384;20.390;2022-07-05T02:57:04;18.98;;;6.82;;
55364;SDS011;41245;45.384;20.390;2022-07-05T02:59:30;12.32;;;5.72;;
55364;SDS011;41245;45.384;20.390;2022-07-05T03:01:56;15.98;;;6.85;;
55364;SDS011;41245;45.384;20.390;2022-07-05T03:04:22;12.85;;;6.43;;
55364;SDS011;41245;45.384;20.390;2022-07-05T03:06:48;11.55;;;5.72;;
55364;SDS011;41245;45.384;20.390;2022-07-05T03:09:14;13.00;;;7.50;;
55364;SDS011;41245;45.384;20.390;2022-07-05T03:11:39;19.65;;;6.28;;
55364;SDS011;41245;45.384;20.390;2022-07-05T03:14:05;17.50;;;6.72;;
55364;SDS011;41245;45.384;20.390;2022-07-05T03:16:31;17.92;;;6.30;;
55364;SDS011;41245;45.384;20.390;2022-07-05T03:18:57;17.98;;;6.78;;
55364;SDS011;41245;45.384;20.390;2022-07-05T03:21:23;11.82;;;6.90;;
55364;SDS011;41245;45.384;20.390;2022-07-05T03:23:49;20.33;;;7.13;;
55364;SDS011;41245;45.384;20.390;2022-07-05T03:26:14;15.20;;;6.22;;
55364;SDS011;41245;45.384;20.390;2022-07-05T03:28:40;23.00;;;6.93;;
55364;SDS011;41245;45.384;20.390;2022-07-05T03:31:06;15.20;;;6.47;;
55364;SDS011;41245;45.384;20.390;2022-07-05T03:33:31;18.13;;;6.22;;
55364;SDS011;41245;45.384;20.390;2022-07-05T03:35:57;39.47;;;6.25;;
55364;SDS011;41245;45.384;20.390;2022-07-05T03:38:23;11.50;;;5.55;;
55364;SDS011;41245;45.384;20.390;2022-07-05T03:40:49;21.23;;;7.75;;
55364;SDS011;41245;45.384;20.390;2022-07-05T03:43:14;18.85;;;6.95;;
55364;SDS011;41245;45.384;20.390;2022-07-05T03:45:40;18.58;;;6.20;;
55364;SDS011;41245;45.384;20.390;2022-07-05T03:48:06;15.13;;;5.93;;
55364;SDS011;41245;45.384;20.390;2022-07-05T03:50:32;24.13;;;7.50;;
55364;SDS011;41245;45.384;20.390;2022-07-05T03:52:58;18.92;;;6.10;;
55364;SDS011;41245;45.384;20.390;2022-07-05T03:55:23;12.95;;;5.85;;
55364;SDS011;41245;45.384;20.390;2022-07-05T03:57:49;24.48;;;6.47;;
55364;SDS011;41245;45.384;20.390;2022-07-05T04:00:15;19.80;;;6.32;;
55364;SDS011;41245;45.384;20.390;2022-07-05T04:02:40;21.33;;;6.35;;
55364;SDS011;41245;45.384;20.390;2022-07-05T04:05:06;13.10;;;5.82;;
55364;SDS011;41245;45.384;20.390;2022-07-05T04:07:32;22.25;;;6.50;;
55364;SDS011;41245;45.384;20.390;2022-07-05T04:09:58;19.42;;;5.70;;
55364;SDS011;41245;45.384;20.390;2022-07-05T04:12:25;26.17;;;6.40;;
55364;SDS011;41245;45.384;20.390;2022-07-05T04:14:51;16.40;;;5.43;;
55364;SDS011;41245;45.384;20.390;2022-07-05T04:17:16;18.05;;;6.03;;
55364;SDS011;41245;45.384;20.390;2022-07-05T04:19:42;17.05;;;5.30;;
55364;SDS011;41245;45.384;20.390;2022-07-05T04:22:08;20.83;;;5.57;;
55364;SDS011;41245;45.384;20.390;2022-07-05T04:24:34;19.13;;;5.10;;
55364;SDS011;41245;45.384;20.390;2022-07-05T04:27:20;12.35;;;5.07;;
55364;SDS011;41245;45.384;20.390;2022-07-05T04:29:46;8.55;;;5.25;;
55364;SDS011;41245;45.384;20.390;2022-07-05T04:32:11;13.50;;;5.10;;
55364;SDS011;41245;45.384;20.390;2022-07-05T04:34:37;12.32;;;4.72;;
55364;SDS011;41245;45.384;20.390;2022-07-05T04:37:03;17.63;;;5.50;;
55364;SDS011;41245;45.384;20.390;2022-07-05T04:39:28;15.98;;;5.47;;
55364;SDS011;41245;45.384;20.390;2022-07-05T04:41:54;7.38;;;4.38;;
55364;SDS011;41245;45.384;20.390;2022-07-05T04:44:20;17.98;;;4.75;;
55364;SDS011;41245;45.384;20.390;2022-07-05T04:46:46;23.10;;;4.63;;
55364;SDS011;41245;45.384;20.390;2022-07-05T04:49:11;12.32;;;4.57;;
55364;SDS011;41245;45.384;20.390;2022-07-05T04:51:37;9.85;;;4.20;;
55364;SDS011;41245;45.384;20.390;2022-07-05T04:54:03;15.02;;;5.05;;
55364;SDS011;41245;45.384;20.390;2022-07-05T04:56:28;12.63;;;5.10;;
55364;SDS011;41245;45.384;20.390;2022-07-05T04:58:54;15.18;;;4.75;;
55364;SDS011;41245;45.384;20.390;2022-07-05T05:01:20;17.90;;;4.60;;
55364;SDS011;41245;45.384;20.390;2022-07-05T05:03:45;14.40;;;5.05;;
55364;SDS011;41245;45.384;20.390;2022-07-05T05:06:11;21.95;;;4.72;;
55364;SDS011;41245;45.384;20.390;2022-07-05T05:08:38;14.32;;;4.30;;
55364;SDS011;41245;45.384;20.390;2022-07-05T05:11:06;15.95;;;4.53;;
55364;SDS011;41245;45.384;20.390;2022-07-05T05:13:32;29.58;;;4.50;;
55364;SDS011;41245;45.384;20.390;2022-07-05T05:15:58;14.90;;;4.18;;
55364;SDS011;41245;45.384;20.390;2022-07-05T05:18:24;18.27;;;4.63;;
55364;SDS011;41245;45.384;20.390;2022-07-05T05:20:52;16.85;;;4.78;;
55364;SDS011;41245;45.384;20.390;2022-07-05T05:23:19;26.65;;;5.60;;
55364;SDS011;41245;45.384;20.390;2022-07-05T05:25:45;21.08;;;5.00;;
55364;SDS011;41245;45.384;20.390;2022-07-05T05:28:11;17.30;;;4.47;;
55364;SDS011;41245;45.384;20.390;2022-07-05T05:30:36;19.48;;;4.68;;
55364;SDS011;41245;45.384;20.390;2022-07-05T05:33:02;10.60;;;4.35;;
55364;SDS011;41245;45.384;20.390;2022-07-05T05:35:28;13.70;;;5.82;;
55364;SDS011;41245;45.384;20.390;2022-07-05T05:37:54;10.10;;;4.63;;
55364;SDS011;41245;45.384;20.390;2022-07-05T05:40:24;14.75;;;5.03;;
55364;SDS011;41245;45.384;20.390;2022-07-05T05:42:51;8.52;;;4.65;;
55364;SDS011;41245;45.384;20.390;2022-07-05T05:45:18;8.68;;;3.88;;
55364;SDS011;41245;45.384;20.390;2022-07-05T05:48:02;11.43;;;4.55;;
55364;SDS011;41245;45.384;20.390;2022-07-05T05:50:29;16.45;;;4.30;;
55364;SDS011;41245;45.384;20.390;2022-07-05T05:52:57;25.38;;;5.85;;
55364;SDS011;41245;45.384;20.390;2022-07-05T05:55:23;16.33;;;5.43;;
55364;SDS011;41245;45.384;20.390;2022-07-05T05:57:50;19.00;;;5.28;;
55364;SDS011;41245;45.384;20.390;2022-07-05T06:00:16;18.42;;;4.35;;
55364;SDS011;41245;45.384;20.390;2022-07-05T06:02:42;19.42;;;4.85;;
55364;SDS011;41245;45.384;20.390;2022-07-05T06:05:10;18.30;;;4.45;;
55364;SDS011;41245;45.384;20.390;2022-07-05T06:10:14;14.73;;;4.50;;
55364;SDS011;41245;45.384;20.390;2022-07-05T06:12:40;10.73;;;3.75;;
55364;SDS011;41245;45.384;20.390;2022-07-05T06:15:06;13.27;;;4.18;;
55364;SDS011;41245;45.384;20.390;2022-07-05T06:17:38;10.27;;;4.43;;
55364;SDS011;41245;45.384;20.390;2022-07-05T06:20:06;10.73;;;3.97;;
55364;SDS011;41245;45.384;20.390;2022-07-05T06:22:36;20.80;;;5.55;;
55364;SDS011;41245;45.384;20.390;2022-07-05T06:25:03;10.68;;;3.80;;
55364;SDS011;41245;45.384;20.390;2022-07-05T06:27:29;8.52;;;4.35;;
55364;SDS011;41245;45.384;20.390;2022-07-05T06:29:55;18.60;;;5.05;;
55364;SDS011;41245;45.384;20.390;2022-07-05T06:32:21;11.82;;;4.53;;
55364;SDS011;41245;45.384;20.390;2022-07-05T06:34:47;9.00;;;4.05;;
55364;SDS011;41245;45.384;20.390;2022-07-05T06:37:12;12.65;;;3.80;;
55364;SDS011;41245;45.384;20.390;2022-07-05T06:39:38;15.73;;;4.85;;
55364;SDS011;41245;45.384;20.390;2022-07-05T06:42:04;6.72;;;4.00;;
55364;SDS011;41245;45.384;20.390;2022-07-05T06:44:30;7.05;;;3.65;;
55364;SDS011;41245;45.384;20.390;2022-07-05T06:46:56;10.57;;;3.55;;
55364;SDS011;41245;45.384;20.390;2022-07-05T06:49:21;12.82;;;4.40;;
55364;SDS011;41245;45.384;20.390;2022-07-05T06:51:47;8.63;;;3.95;;
55364;SDS011;41245;45.384;20.390;2022-07-05T06:54:13;15.32;;;4.18;;
55364;SDS011;41245;45.384;20.390;2022-07-05T06:56:38;15.75;;;4.50;;
55364;SDS011;41245;45.384;20.390;2022-07-05T06:59:04;13.07;;;4.90;;
55364;SDS011;41245;45.384;20.390;2022-07-05T07:01:30;12.52;;;4.85;;
55364;SDS011;41245;45.384;20.390;2022-07-05T07:03:56;14.63;;;4.97;;
55364;SDS011;41245;45.384;20.390;2022-07-05T07:06:22;10.32;;;4.40;;
55364;SDS011;41245;45.384;20.390;2022-07-05T07:08:48;12.07;;;4.70;;
55364;SDS011;41245;45.384;20.390;2022-07-05T07:11:32;15.07;;;4.10;;
55364;SDS011;41245;45.384;20.390;2022-07-05T07:13:58;9.25;;;4.70;;
55364;SDS011;41245;45.384;20.390;2022-07-05T07:16:24;14.13;;;3.88;;
55364;SDS011;41245;45.384;20.390;2022-07-05T07:18:50;15.30;;;4.38;;
55364;SDS011;41245;45.384;20.390;2022-07-05T07:21:15;11.85;;;3.47;;
55364;SDS011;41245;45.384;20.390;2022-07-05T07:23:41;9.73;;;3.60;;
55364;SDS011;41245;45.384;20.390;2022-07-05T07:26:07;11.00;;;3.58;;
55364;SDS011;41245;45.384;20.390;2022-07-05T07:28:32;14.13;;;3.90;;
55364;SDS011;41245;45.384;20.390;2022-07-05T07:30:58;7.03;;;3.75;;
55364;SDS011;41245;45.384;20.390;2022-07-05T07:33:24;10.25;;;3.92;;
55364;SDS011;41245;45.384;20.390;2022-07-05T07:35:50;11.20;;;3.63;;
55364;SDS011;41245;45.384;20.390;2022-07-05T07:38:15;18.33;;;3.67;;
55364;SDS011;41245;45.384;20.390;2022-07-05T07:40:41;9.93;;;4.25;;
55364;SDS011;41245;45.384;20.390;2022-07-05T07:43:07;10.35;;;4.00;;
55364;SDS011;41245;45.384;20.390;2022-07-05T07:45:32;12.05;;;4.00;;
55364;SDS011;41245;45.384;20.390;2022-07-05T07:47:58;6.90;;;3.55;;
55364;SDS011;41245;45.384;20.390;2022-07-05T07:50:24;10.43;;;3.70;;
55364;SDS011;41245;45.384;20.390;2022-07-05T07:52:49;4.70;;;2.95;;
55364;SDS011;41245;45.384;20.390;2022-07-05T07:55:15;10.55;;;4.10;;
55364;SDS011;41245;45.384;20.390;2022-07-05T07:57:41;9.00;;;3.40;;
55364;SDS011;41245;45.384;20.390;2022-07-05T08:00:07;8.68;;;3.08;;
55364;SDS011;41245;45.384;20.390;2022-07-05T08:02:33;7.32;;;3.83;;
55364;SDS011;41245;45.384;20.390;2022-07-05T08:04:59;8.80;;;3.50;;
55364;SDS011;41245;45.384;20.390;2022-07-05T08:07:25;8.60;;;3.22;;
55364;SDS011;41245;45.384;20.390;2022-07-05T08:09:51;9.68;;;3.50;;
55364;SDS011;41245;45.384;20.390;2022-07-05T08:12:18;5.90;;;3.40;;
55364;SDS011;41245;45.384;20.390;2022-07-05T08:14:44;9.73;;;4.70;;
55364;SDS011;41245;45.384;20.390;2022-07-05T08:17:11;12.65;;;3.42;;
55364;SDS011;41245;45.384;20.390;2022-07-05T08:19:37;19.13;;;3.33;;
55364;SDS011;41245;45.384;20.390;2022-07-05T08:22:21;6.80;;;3.05;;
55364;SDS011;41245;45.384;20.390;2022-07-05T08:24:47;15.95;;;4.47;;
55364;SDS011;41245;45.384;20.390;2022-07-05T08:27:14;9.75;;;3.28;;
55364;SDS011;41245;45.384;20.390;2022-07-05T08:29:40;15.20;;;3.22;;
55364;SDS011;41245;45.384;20.390;2022-07-05T08:32:06;5.72;;;3.22;;
55364;SDS011;41245;45.384;20.390;2022-07-05T08:34:32;9.45;;;3.58;;
55364;SDS011;41245;45.384;20.390;2022-07-05T08:36:58;7.32;;;3.83;;
55364;SDS011;41245;45.384;20.390;2022-07-05T08:39:24;7.47;;;3.20;;
55364;SDS011;41245;45.384;20.390;2022-07-05T08:41:51;10.35;;;3.17;;
55364;SDS011;41245;45.384;20.390;2022-07-05T08:44:22;7.25;;;3.20;;
55364;SDS011;41245;45.384;20.390;2022-07-05T08:46:48;4.97;;;2.88;;
55364;SDS011;41245;45.384;20.390;2022-07-05T08:49:22;11.95;;;3.30;;
55364;SDS011;41245;45.384;20.390;2022-07-05T08:51:50;10.63;;;3.40;;
55364;SDS011;41245;45.384;20.390;2022-07-05T08:54:17;25.27;;;3.88;;
55364;SDS011;41245;45.384;20.390;2022-07-05T08:56:43;11.50;;;4.18;;
55364;SDS011;41245;45.384;20.390;2022-07-05T08:59:09;8.32;;;3.97;;
55364;SDS011;41245;45.384;20.390;2022-07-05T09:01:35;9.88;;;3.42;;
55364;SDS011;41245;45.384;20.390;2022-07-05T09:04:05;11.80;;;2.88;;
55364;SDS011;41245;45.384;20.390;2022-07-05T09:06:35;5.47;;;3.20;;
55364;SDS011;41245;45.384;20.390;2022-07-05T09:09:04;6.53;;;3.05;;
55364;SDS011;41245;45.384;20.390;2022-07-05T09:11:32;4.72;;;3.47;;
55364;SDS011;41245;45.384;20.390;2022-07-05T09:14:00;13.90;;;3.33;;
55364;SDS011;41245;45.384;20.390;2022-07-05T09:16:28;11.07;;;3.50;;
55364;SDS011;41245;45.384;20.390;2022-07-05T09:18:54;12.70;;;3.50;;
55364;SDS011;41245;45.384;20.390;2022-07-05T09:21:22;8.65;;;3.88;;
55364;SDS011;41245;45.384;20.390;2022-07-05T09:24:05;7.60;;;3.35;;
55364;SDS011;41245;45.384;20.390;2022-07-05T09:26:53;10.15;;;3.13;;
55364;SDS011;41245;45.384;20.390;2022-07-05T09:29:28;8.50;;;3.55;;
55364;SDS011;41245;45.384;20.390;2022-07-05T09:31:54;10.93;;;4.20;;
55364;SDS011;41245;45.384;20.390;2022-07-05T09:34:19;12.60;;;3.83;;
55364;SDS011;41245;45.384;20.390;2022-07-05T09:36:47;7.88;;;3.97;;
55364;SDS011;41245;45.384;20.390;2022-07-05T09:39:14;9.20;;;4.95;;
55364;SDS011;41245;45.384;20.390;2022-07-05T09:41:39;11.95;;;3.30;;
55364;SDS011;41245;45.384;20.390;2022-07-05T09:44:05;13.68;;;4.18;;
55364;SDS011;41245;45.384;20.390;2022-07-05T09:46:31;18.13;;;4.95;;
55364;SDS011;41245;45.384;20.390;2022-07-05T09:48:57;13.52;;;5.28;;
55364;SDS011;41245;45.384;20.390;2022-07-05T09:51:23;17.13;;;4.28;;
55364;SDS011;41245;45.384;20.390;2022-07-05T09:53:50;15.57;;;5.00;;
55364;SDS011;41245;45.384;20.390;2022-07-05T09:56:18;13.27;;;5.05;;
55364;SDS011;41245;45.384;20.390;2022-07-05T09:58:44;12.55;;;4.03;;
55364;SDS011;41245;45.384;20.390;2022-07-05T10:03:59;7.55;;;4.38;;
55364;SDS011;41245;45.384;20.390;2022-07-05T10:06:27;9.93;;;3.88;;
55364;SDS011;41245;45.384;20.390;2022-07-05T10:08:55;9.13;;;5.05;;
55364;SDS011;41245;45.384;20.390;2022-07-05T10:11:21;8.07;;;5.15;;
55364;SDS011;41245;45.384;20.390;2022-07-05T10:13:49;13.23;;;4.55;;
55364;SDS011;41245;45.384;20.390;2022-07-05T10:16:16;14.82;;;5.65;;
55364;SDS011;41245;45.384;20.390;2022-07-05T10:18:43;10.10;;;4.00;;
55364;SDS011;41245;45.384;20.390;2022-07-05T10:21:17;14.48;;;4.88;;
55364;SDS011;41245;45.384;20.390;2022-07-05T10:23:44;8.85;;;3.97;;
55364;SDS011;41245;45.384;20.390;2022-07-05T10:26:11;12.43;;;4.50;;
55364;SDS011;41245;45.384;20.390;2022-07-05T10:28:44;12.23;;;4.30;;
55364;SDS011;41245;45.384;20.390;2022-07-05T10:31:15;10.57;;;4.18;;
55364;SDS011;41245;45.384;20.390;2022-07-05T10:33:42;21.10;;;5.13;;
55364;SDS011;41245;45.384;20.390;2022-07-05T10:36:12;7.90;;;4.45;;
55364;SDS011;41245;45.384;20.390;2022-07-05T10:38:44;10.90;;;4.38;;
55364;SDS011;41245;45.384;20.390;2022-07-05T10:41:17;9.43;;;5.43;;
55364;SDS011;41245;45.384;20.390;2022-07-05T10:43:53;8.60;;;4.25;;
55364;SDS011;41245;45.384;20.390;2022-07-05T10:46:32;13.23;;;5.20;;
55364;SDS011;41245;45.384;20.390;2022-07-05T10:49:09;18.30;;;5.50;;
55364;SDS011;41245;45.384;20.390;2022-07-05T10:51:36;12.98;;;5.22;;
55364;SDS011;41245;45.384;20.390;2022-07-05T10:54:02;10.80;;;4.80;;
55364;SDS011;41245;45.384;20.390;2022-07-05T10:56:28;14.32;;;5.30;;
55364;SDS011;41245;45.384;20.390;2022-07-05T10:59:03;11.75;;;5.97;;
55364;SDS011;41245;45.384;20.390;2022-07-05T11:01:31;10.50;;;4.40;;
55364;SDS011;41245;45.384;20.390;2022-07-05T11:06:27;9.67;;;3.70;;
55364;SDS011;41245;45.384;20.390;2022-07-05T11:11:32;9.70;;;5.18;;
55364;SDS011;41245;45.384;20.390;2022-07-05T11:14:03;9.55;;;3.88;;
55364;SDS011;41245;45.384;20.390;2022-07-05T11:16:34;12.73;;;4.18;;
55364;SDS011;41245;45.384;20.390;2022-07-05T11:21:34;16.45;;;5.28;;
55364;SDS011;41245;45.384;20.390;2022-07-05T11:26:47;9.52;;;3.28;;
55364;SDS011;41245;45.384;20.390;2022-07-05T11:32:12;10.40;;;3.60;;
55364;SDS011;41245;45.384;20.390;2022-07-05T11:34:39;20.35;;;3.75;;
55364;SDS011;41245;45.384;20.390;2022-07-05T11:39:41;27.27;;;3.72;;
55364;SDS011;41245;45.384;20.390;2022-07-05T11:42:28;7.28;;;3.17;;
55364;SDS011;41245;45.384;20.390;2022-07-05T11:44:53;17.63;;;4.28;;
55364;SDS011;41245;45.384;20.390;2022-07-05T11:47:20;13.45;;;2.70;;
55364;SDS011;41245;45.384;20.390;2022-07-05T11:49:53;14.07;;;3.20;;
55364;SDS011;41245;45.384;20.390;2022-07-05T11:52:30;6.50;;;2.97;;
55364;SDS011;41245;45.384;20.390;2022-07-05T11:54:57;4.90;;;3.13;;
55364;SDS011;41245;45.384;20.390;2022-07-05T11:57:23;10.73;;;2.85;;
55364;SDS011;41245;45.384;20.390;2022-07-05T11:59:49;11.40;;;3.28;;
55364;SDS011;41245;45.384;20.390;2022-07-05T12:02:16;6.72;;;2.63;;
55364;SDS011;41245;45.384;20.390;2022-07-05T12:04:48;7.97;;;2.88;;
55364;SDS011;41245;45.384;20.390;2022-07-05T12:09:55;6.82;;;3.40;;
55364;SDS011;41245;45.384;20.390;2022-07-05T12:12:40;7.35;;;3.35;;
55364;SDS011;41245;45.384;20.390;2022-07-05T12:17:35;7.57;;;3.20;;
55364;SDS011;41245;45.384;20.390;2022-07-05T12:20:02;14.30;;;4.22;;
55364;SDS011;41245;45.384;20.390;2022-07-05T12:24:54;11.65;;;4.25;;
55364;SDS011;41245;45.384;20.390;2022-07-05T12:27:23;5.65;;;3.05;;
55364;SDS011;41245;45.384;20.390;2022-07-05T12:29:50;11.48;;;3.03;;
55364;SDS011;41245;45.384;20.390;2022-07-05T12:32:15;7.20;;;3.20;;
55364;SDS011;41245;45.384;20.390;2022-07-05T12:34:41;13.63;;;3.75;;
55364;SDS011;41245;45.384;20.390;2022-07-05T12:37:07;6.78;;;3.17;;
55364;SDS011;41245;45.384;20.390;2022-07-05T12:39:33;7.88;;;3.25;;
55364;SDS011;41245;45.384;20.390;2022-07-05T12:41:59;10.60;;;3.38;;
55364;SDS011;41245;45.384;20.390;2022-07-05T12:44:25;9.93;;;3.08;;
55364;SDS011;41245;45.384;20.390;2022-07-05T12:46:51;15.45;;;3.45;;
55364;SDS011;41245;45.384;20.390;2022-07-05T12:49:18;8.55;;;3.10;;
55364;SDS011;41245;45.384;20.390;2022-07-05T12:51:44;4.85;;;2.80;;
55364;SDS011;41245;45.384;20.390;2022-07-05T12:54:20;7.93;;;3.50;;
55364;SDS011;41245;45.384;20.390;2022-07-05T12:57:06;12.65;;;2.80;;
55364;SDS011;41245;45.384;20.390;2022-07-05T13:00:01;9.40;;;3.20;;
55364;SDS011;41245;45.384;20.390;2022-07-05T13:02:38;6.40;;;3.10;;
55364;SDS011;41245;45.384;20.390;2022-07-05T13:05:06;10.23;;;2.97;;
55364;SDS011;41245;45.384;20.390;2022-07-05T13:07:33;8.52;;;3.65;;
55364;SDS011;41245;45.384;20.390;2022-07-05T13:10:15;6.38;;;2.78;;
55364;SDS011;41245;45.384;20.390;2022-07-05T13:12:46;18.38;;;3.60;;
55364;SDS011;41245;45.384;20.390;2022-07-05T13:15:13;31.88;;;3.10;;
55364;SDS011;41245;45.384;20.390;2022-07-05T13:17:39;19.90;;;2.83;;
55364;SDS011;41245;45.384;20.390;2022-07-05T13:20:06;25.52;;;3.10;;
55364;SDS011;41245;45.384;20.390;2022-07-05T13:22:33;13.57;;;2.72;;
55364;SDS011;41245;45.384;20.390;2022-07-05T13:24:58;25.15;;;3.25;;
55364;SDS011;41245;45.384;20.390;2022-07-05T13:27:24;25.65;;;3.33;;
55364;SDS011;41245;45.384;20.390;2022-07-05T13:29:50;12.70;;;2.80;;
55364;SDS011;41245;45.384;20.390;2022-07-05T13:32:16;17.10;;;2.80;;
55364;SDS011;41245;45.384;20.390;2022-07-05T13:34:42;17.85;;;2.53;;
55364;SDS011;41245;45.384;20.390;2022-07-05T13:37:10;10.68;;;2.40;;
55364;SDS011;41245;45.384;20.390;2022-07-05T13:39:36;11.18;;;2.80;;
55364;SDS011;41245;45.384;20.390;2022-07-05T13:42:03;5.95;;;2.40;;
55364;SDS011;41245;45.384;20.390;2022-07-05T13:44:30;25.80;;;2.65;;
55364;SDS011;41245;45.384;20.390;2022-07-05T13:46:56;12.02;;;3.42;;
55364;SDS011;41245;45.384;20.390;2022-07-05T13:49:22;15.43;;;2.88;;
55364;SDS011;41245;45.384;20.390;2022-07-05T13:51:48;12.88;;;2.45;;
55364;SDS011;41245;45.384;20.390;2022-07-05T13:54:14;12.27;;;2.80;;
55364;SDS011;41245;45.384;20.390;2022-07-05T13:56:40;9.77;;;2.70;;
55364;SDS011;41245;45.384;20.390;2022-07-05T13:59:06;13.60;;;2.63;;
55364;SDS011;41245;45.384;20.390;2022-07-05T14:01:31;16.48;;;3.50;;
55364;SDS011;41245;45.384;20.390;2022-07-05T14:03:58;11.05;;;2.97;;
55364;SDS011;41245;45.384;20.390;2022-07-05T14:06:26;5.40;;;3.40;;
55364;SDS011;41245;45.384;20.390;2022-07-05T14:08:52;8.80;;;2.92;;
55364;SDS011;41245;45.384;20.390;2022-07-05T14:11:18;7.03;;;3.15;;
55364;SDS011;41245;45.384;20.390;2022-07-05T14:13:44;13.18;;;2.50;;
55364;SDS011;41245;45.384;20.390;2022-07-05T14:16:09;14.30;;;2.42;;
55364;SDS011;41245;45.384;20.390;2022-07-05T14:18:35;10.95;;;2.90;;
55364;SDS011;41245;45.384;20.390;2022-07-05T14:21:01;22.98;;;2.95;;
55364;SDS011;41245;45.384;20.390;2022-07-05T14:23:28;13.10;;;2.90;;
55364;SDS011;41245;45.384;20.390;2022-07-05T14:25:53;16.90;;;3.28;;
55364;SDS011;41245;45.384;20.390;2022-07-05T14:28:19;14.02;;;3.75;;
55364;SDS011;41245;45.384;20.390;2022-07-05T14:30:45;12.10;;;2.80;;
55364;SDS011;41245;45.384;20.390;2022-07-05T14:33:13;11.23;;;4.03;;
55364;SDS011;41245;45.384;20.390;2022-07-05T14:35:39;12.82;;;3.67;;
55364;SDS011;41245;45.384;20.390;2022-07-05T14:38:05;15.48;;;3.85;;
55364;SDS011;41245;45.384;20.390;2022-07-05T14:40:32;4.38;;;3.58;;
55364;SDS011;41245;45.384;20.390;2022-07-05T14:42:58;8.48;;;3.78;;
55364;SDS011;41245;45.384;20.390;2022-07-05T14:45:25;7.40;;;3.58;;
55364;SDS011;41245;45.384;20.390;2022-07-05T14:47:52;10.55;;;4.82;;
55364;SDS011;41245;45.384;20.390;2022-07-05T14:50:18;9.10;;;5.40;;
55364;SDS011;41245;45.384;20.390;2022-07-05T14:52:45;7.22;;;3.60;;
55364;SDS011;41245;45.384;20.390;2022-07-05T14:55:12;9.13;;;4.07;;